BRNCO56 KIAD-KRDU
Flight info
| Callsign | BRNCO56 |
|---|---|
| Flight time | 0h 50m |
| Altitude | 17500 |
| Route | VFRFF |
| Aircraft | C130/M-SDE2E3FGRY/H |
Departure
| Time | 2026-05-06 22:48 |
|---|---|
| Airport | Washington Dulles International Airport (KIAD) |
Arrival
| Time | 2026-05-06 23:38 |
|---|---|
| Airport | Raleigh-Durham International Airport (KRDU) |
| Time | Latitude | Longitude | Altitude | Speed | Heading |
|---|---|---|---|---|---|
| 2026-05-06 22:21 | 38.94560 | -77.46522 | 298 ft | 0 kts | 180° |
| 2026-05-06 22:42 | 38.94543 | -77.46522 | 301 ft | 1 kts | 180° |
| 2026-05-06 22:42 | 38.94537 | -77.46522 | 301 ft | 0 kts | 180° |
| 2026-05-06 22:42 | 38.94499 | -77.46522 | 299 ft | 2 kts | 178° |
| 2026-05-06 22:42 | 38.94494 | -77.46520 | 299 ft | 4 kts | 158° |
| 2026-05-06 22:43 | 38.94474 | -77.46444 | 299 ft | 10 kts | 93° |
| 2026-05-06 22:43 | 38.94470 | -77.46329 | 298 ft | 21 kts | 93° |
| 2026-05-06 22:43 | 38.94462 | -77.46185 | 298 ft | 12 kts | 96° |
| 2026-05-06 22:43 | 38.94457 | -77.46105 | 299 ft | 6 kts | 90° |
| 2026-05-06 22:44 | 38.94453 | -77.45979 | 303 ft | 20 kts | 92° |
| 2026-05-06 22:44 | 38.94450 | -77.45805 | 299 ft | 17 kts | 92° |
| 2026-05-06 22:44 | 38.94426 | -77.45693 | 299 ft | 14 kts | 106° |
| 2026-05-06 22:44 | 38.94347 | -77.45613 | 298 ft | 17 kts | 178° |
| 2026-05-06 22:45 | 38.94194 | -77.45613 | 302 ft | 15 kts | 180° |
| 2026-05-06 22:45 | 38.94078 | -77.45615 | 300 ft | 10 kts | 181° |
| 2026-05-06 22:45 | 38.93998 | -77.45615 | 298 ft | 14 kts | 179° |
| 2026-05-06 22:45 | 38.93876 | -77.45619 | 300 ft | 19 kts | 182° |
| 2026-05-06 22:46 | 38.93744 | -77.45620 | 300 ft | 19 kts | 178° |
| 2026-05-06 22:46 | 38.93648 | -77.45528 | 299 ft | 19 kts | 133° |
| 2026-05-06 22:46 | 38.93544 | -77.45515 | 301 ft | 16 kts | 200° |
| 2026-05-06 22:46 | 38.93466 | -77.45553 | 299 ft | 0 kts | 201° |
| 2026-05-06 22:47 | 38.93432 | -77.45569 | 297 ft | 15 kts | 201° |
| 2026-05-06 22:47 | 38.93389 | -77.45692 | 301 ft | 19 kts | 294° |
| 2026-05-06 22:47 | 38.93459 | -77.45979 | 296 ft | 62 kts | 288° |
| 2026-05-06 22:48 | 38.93744 | -77.46874 | 399 ft | 141 kts | 289° |
| 2026-05-06 22:48 | 38.94130 | -77.48143 | 864 ft | 161 kts | 289° |
| 2026-05-06 22:48 | 38.94386 | -77.49548 | 1544 ft | 169 kts | 262° |
| 2026-05-06 22:48 | 38.93833 | -77.50966 | 1949 ft | 186 kts | 230° |
| 2026-05-06 22:49 | 38.92846 | -77.52186 | 1423 ft | 213 kts | 223° |
| 2026-05-06 22:49 | 38.91698 | -77.53397 | 1328 ft | 197 kts | 223° |
| 2026-05-06 22:49 | 38.90633 | -77.54369 | 1742 ft | 190 kts | 215° |
| 2026-05-06 22:49 | 38.89495 | -77.55333 | 1579 ft | 219 kts | 214° |
| 2026-05-06 22:50 | 38.88083 | -77.56537 | 1766 ft | 243 kts | 214° |
| 2026-05-06 22:50 | 38.86683 | -77.57734 | 2384 ft | 246 kts | 216° |
| 2026-05-06 22:50 | 38.85267 | -77.58930 | 2557 ft | 244 kts | 214° |
| 2026-05-06 22:50 | 38.83793 | -77.60083 | 2542 ft | 255 kts | 207° |
| 2026-05-06 22:51 | 38.82140 | -77.60879 | 2514 ft | 258 kts | 200° |
| 2026-05-06 22:51 | 38.80450 | -77.61619 | 2507 ft | 257 kts | 200° |
| 2026-05-06 22:51 | 38.78760 | -77.62344 | 2727 ft | 244 kts | 200° |
| 2026-05-06 22:51 | 38.77180 | -77.63003 | 3622 ft | 240 kts | 201° |
| 2026-05-06 22:52 | 38.75623 | -77.63641 | 4379 ft | 241 kts | 201° |
| 2026-05-06 22:52 | 38.73994 | -77.64284 | 5175 ft | 242 kts | 201° |
| 2026-05-06 22:52 | 38.72377 | -77.64883 | 5877 ft | 245 kts | 201° |
| 2026-05-06 22:52 | 38.70720 | -77.65468 | 6562 ft | 248 kts | 201° |
| 2026-05-06 22:53 | 38.69041 | -77.66040 | 7231 ft | 251 kts | 201° |
| 2026-05-06 22:53 | 38.67338 | -77.66589 | 7919 ft | 253 kts | 201° |
| 2026-05-06 22:53 | 38.65625 | -77.67134 | 8633 ft | 255 kts | 201° |
| 2026-05-06 22:53 | 38.63929 | -77.67676 | 9343 ft | 255 kts | 201° |
| 2026-05-06 22:54 | 38.62238 | -77.68213 | 10031 ft | 255 kts | 201° |
| 2026-05-06 22:54 | 38.60537 | -77.68745 | 10658 ft | 258 kts | 201° |
| 2026-05-06 22:54 | 38.58766 | -77.69288 | 11107 ft | 264 kts | 201° |
| 2026-05-06 22:54 | 38.56955 | -77.69835 | 11437 ft | 274 kts | 201° |
| 2026-05-06 22:55 | 38.55043 | -77.70422 | 11516 ft | 288 kts | 201° |
| 2026-05-06 22:55 | 38.53100 | -77.71023 | 11523 ft | 287 kts | 201° |
| 2026-05-06 22:55 | 38.51154 | -77.71625 | 11516 ft | 287 kts | 201° |
| 2026-05-06 22:55 | 38.49310 | -77.72195 | 11513 ft | 287 kts | 201° |
| 2026-05-06 22:56 | 38.47592 | -77.72727 | 11505 ft | 287 kts | 201° |
| 2026-05-06 22:56 | 38.45744 | -77.73310 | 11508 ft | 294 kts | 201° |
| 2026-05-06 22:56 | 38.45104 | -77.73517 | 11510 ft | 297 kts | 201° |
| 2026-05-06 22:56 | 38.43026 | -77.74200 | 11525 ft | 307 kts | 201° |
| 2026-05-06 22:57 | 38.40933 | -77.74878 | 11507 ft | 313 kts | 198° |
| 2026-05-06 22:57 | 38.38746 | -77.75163 | 11512 ft | 319 kts | 190° |
| 2026-05-06 22:57 | 38.36535 | -77.75318 | 11510 ft | 318 kts | 190° |
| 2026-05-06 22:57 | 38.34321 | -77.75476 | 11511 ft | 318 kts | 190° |
| 2026-05-06 22:58 | 38.32106 | -77.75635 | 11501 ft | 319 kts | 190° |
| 2026-05-06 22:58 | 38.29909 | -77.75793 | 11508 ft | 318 kts | 190° |
| 2026-05-06 22:58 | 38.27738 | -77.75949 | 11516 ft | 319 kts | 190° |
| 2026-05-06 22:58 | 38.25524 | -77.76109 | 11511 ft | 318 kts | 190° |
| 2026-05-06 22:59 | 38.23316 | -77.76271 | 11511 ft | 319 kts | 190° |
| 2026-05-06 22:59 | 38.21107 | -77.76434 | 11516 ft | 319 kts | 190° |
| 2026-05-06 22:59 | 38.18884 | -77.76597 | 11509 ft | 320 kts | 190° |
| 2026-05-06 22:59 | 38.16700 | -77.76753 | 11812 ft | 314 kts | 190° |
| 2026-05-06 23:00 | 38.14496 | -77.76914 | 11056 ft | 315 kts | 190° |
| 2026-05-06 23:00 | 38.12325 | -77.77078 | 10373 ft | 312 kts | 190° |
| 2026-05-06 23:00 | 38.10184 | -77.77254 | 9717 ft | 307 kts | 190° |
| 2026-05-06 23:00 | 38.08089 | -77.77432 | 9007 ft | 304 kts | 190° |
| 2026-05-06 23:01 | 38.05985 | -77.77605 | 8403 ft | 303 kts | 190° |
| 2026-05-06 23:01 | 38.03885 | -77.77773 | 7912 ft | 302 kts | 190° |
| 2026-05-06 23:01 | 38.01796 | -77.77935 | 7684 ft | 302 kts | 190° |
| 2026-05-06 23:01 | 37.99698 | -77.78097 | 7556 ft | 303 kts | 190° |
| 2026-05-06 23:02 | 37.97597 | -77.78261 | 7501 ft | 302 kts | 190° |
| 2026-05-06 23:02 | 37.95496 | -77.78426 | 7366 ft | 303 kts | 190° |
| 2026-05-06 23:02 | 37.93390 | -77.78590 | 6450 ft | 297 kts | 190° |
| 2026-05-06 23:02 | 37.91335 | -77.78740 | 6377 ft | 297 kts | 190° |
| 2026-05-06 23:03 | 37.89254 | -77.78891 | 6450 ft | 300 kts | 190° |
| 2026-05-06 23:03 | 37.87213 | -77.79039 | 6465 ft | 298 kts | 190° |
| 2026-05-06 23:03 | 37.85137 | -77.79188 | 6460 ft | 299 kts | 190° |
| 2026-05-06 23:03 | 37.83059 | -77.79328 | 6467 ft | 299 kts | 190° |
| 2026-05-06 23:04 | 37.80980 | -77.79478 | 6468 ft | 298 kts | 190° |
| 2026-05-06 23:04 | 37.78906 | -77.79627 | 6462 ft | 299 kts | 190° |
| 2026-05-06 23:04 | 37.76831 | -77.79773 | 6459 ft | 297 kts | 190° |
| 2026-05-06 23:04 | 37.74775 | -77.79921 | 6464 ft | 298 kts | 190° |
| 2026-05-06 23:05 | 37.72700 | -77.80064 | 6391 ft | 299 kts | 190° |
| 2026-05-06 23:05 | 37.70633 | -77.80214 | 5627 ft | 293 kts | 190° |
| 2026-05-06 23:05 | 37.68628 | -77.80377 | 5491 ft | 294 kts | 190° |
| 2026-05-06 23:05 | 37.66591 | -77.80555 | 5470 ft | 294 kts | 190° |
| 2026-05-06 23:06 | 37.64547 | -77.80726 | 5473 ft | 294 kts | 190° |
| 2026-05-06 23:06 | 37.62514 | -77.80896 | 5476 ft | 294 kts | 190° |
| 2026-05-06 23:06 | 37.60471 | -77.81066 | 5482 ft | 294 kts | 190° |
| 2026-05-06 23:06 | 37.58431 | -77.81237 | 5471 ft | 294 kts | 190° |
| 2026-05-06 23:07 | 37.56381 | -77.81409 | 5470 ft | 295 kts | 190° |
| 2026-05-06 23:07 | 37.54369 | -77.81580 | 5486 ft | 293 kts | 190° |
| 2026-05-06 23:07 | 37.52302 | -77.81777 | 5510 ft | 293 kts | 190° |
| 2026-05-06 23:07 | 37.50276 | -77.81971 | 5519 ft | 292 kts | 190° |
| 2026-05-06 23:08 | 37.48273 | -77.82157 | 5509 ft | 292 kts | 190° |
| 2026-05-06 23:08 | 37.46246 | -77.82343 | 5509 ft | 292 kts | 190° |
| 2026-05-06 23:08 | 37.44234 | -77.82530 | 5511 ft | 291 kts | 190° |
| 2026-05-06 23:08 | 37.42198 | -77.82716 | 5511 ft | 294 kts | 190° |
| 2026-05-06 23:09 | 37.40163 | -77.82893 | 5507 ft | 292 kts | 190° |
| 2026-05-06 23:09 | 37.38134 | -77.83084 | 5514 ft | 293 kts | 190° |
| 2026-05-06 23:09 | 37.36100 | -77.83274 | 5516 ft | 291 kts | 190° |
| 2026-05-06 23:09 | 37.34104 | -77.83455 | 5514 ft | 291 kts | 190° |
| 2026-05-06 23:10 | 37.32072 | -77.83645 | 5505 ft | 292 kts | 189° |
| 2026-05-06 23:10 | 37.30049 | -77.83842 | 5511 ft | 294 kts | 190° |
| 2026-05-06 23:10 | 37.28013 | -77.84041 | 5513 ft | 292 kts | 190° |
| 2026-05-06 23:10 | 37.25993 | -77.84228 | 5524 ft | 294 kts | 190° |
| 2026-05-06 23:11 | 37.23964 | -77.84428 | 5510 ft | 291 kts | 190° |
| 2026-05-06 23:11 | 37.21959 | -77.84637 | 5511 ft | 290 kts | 194° |
| 2026-05-06 23:11 | 37.20138 | -77.85540 | 5524 ft | 279 kts | 218° |
| 2026-05-06 23:11 | 37.18549 | -77.86939 | 5508 ft | 278 kts | 220° |
| 2026-05-06 23:12 | 37.16996 | -77.88341 | 5509 ft | 280 kts | 220° |
| 2026-05-06 23:12 | 37.15413 | -77.89768 | 5510 ft | 279 kts | 220° |
| 2026-05-06 23:12 | 37.13833 | -77.91188 | 5512 ft | 279 kts | 220° |
| 2026-05-06 23:12 | 37.12257 | -77.92608 | 5505 ft | 280 kts | 220° |
| 2026-05-06 23:13 | 37.10671 | -77.94036 | 5511 ft | 280 kts | 220° |
| 2026-05-06 23:13 | 37.09097 | -77.95456 | 5506 ft | 278 kts | 219° |
| 2026-05-06 23:13 | 37.07538 | -77.96891 | 5518 ft | 278 kts | 220° |
| 2026-05-06 23:13 | 37.05981 | -77.98312 | 5509 ft | 278 kts | 220° |
| 2026-05-06 23:14 | 37.04417 | -77.99736 | 5503 ft | 278 kts | 220° |
| 2026-05-06 23:14 | 37.02855 | -78.01156 | 5517 ft | 278 kts | 220° |
| 2026-05-06 23:14 | 37.01315 | -78.02556 | 5519 ft | 279 kts | 220° |
| 2026-05-06 23:14 | 36.99743 | -78.03983 | 5504 ft | 277 kts | 220° |
| 2026-05-06 23:15 | 36.98185 | -78.05401 | 5511 ft | 278 kts | 220° |
| 2026-05-06 23:15 | 36.96619 | -78.06830 | 5481 ft | 278 kts | 220° |
| 2026-05-06 23:15 | 36.95059 | -78.08251 | 5465 ft | 277 kts | 220° |
| 2026-05-06 23:15 | 36.93499 | -78.09671 | 5456 ft | 277 kts | 220° |
| 2026-05-06 23:16 | 36.91946 | -78.11087 | 5463 ft | 275 kts | 220° |
| 2026-05-06 23:16 | 36.90392 | -78.12501 | 5467 ft | 276 kts | 220° |
| 2026-05-06 23:16 | 36.88846 | -78.13905 | 5502 ft | 277 kts | 220° |
| 2026-05-06 23:16 | 36.87309 | -78.15303 | 5498 ft | 275 kts | 220° |
| 2026-05-06 23:17 | 36.85771 | -78.16715 | 5507 ft | 275 kts | 220° |
| 2026-05-06 23:17 | 36.84231 | -78.18132 | 5500 ft | 275 kts | 220° |
| 2026-05-06 23:17 | 36.82696 | -78.19548 | 5513 ft | 274 kts | 220° |
| 2026-05-06 23:17 | 36.80959 | -78.20571 | 5510 ft | 284 kts | 197° |
| 2026-05-06 23:18 | 36.78983 | -78.20842 | 5521 ft | 286 kts | 190° |
| 2026-05-06 23:18 | 36.76999 | -78.21034 | 5519 ft | 287 kts | 190° |
| 2026-05-06 23:18 | 36.75028 | -78.21235 | 5519 ft | 288 kts | 190° |
| 2026-05-06 23:18 | 36.73041 | -78.21429 | 5529 ft | 287 kts | 190° |
| 2026-05-06 23:19 | 36.71053 | -78.21622 | 5520 ft | 288 kts | 190° |
| 2026-05-06 23:19 | 36.69057 | -78.21822 | 5525 ft | 288 kts | 190° |
| 2026-05-06 23:19 | 36.67058 | -78.22020 | 5523 ft | 287 kts | 190° |
| 2026-05-06 23:19 | 36.65069 | -78.22217 | 5526 ft | 289 kts | 190° |
| 2026-05-06 23:20 | 36.63074 | -78.22426 | 5512 ft | 287 kts | 190° |
| 2026-05-06 23:20 | 36.61100 | -78.22641 | 5519 ft | 285 kts | 190° |
| 2026-05-06 23:20 | 36.59121 | -78.22844 | 5517 ft | 286 kts | 190° |
| 2026-05-06 23:20 | 36.57137 | -78.23048 | 5512 ft | 285 kts | 190° |
| 2026-05-06 23:21 | 36.55163 | -78.23256 | 5481 ft | 285 kts | 190° |
| 2026-05-06 23:21 | 36.53214 | -78.23457 | 5485 ft | 285 kts | 190° |
| 2026-05-06 23:21 | 36.51235 | -78.23660 | 5492 ft | 285 kts | 190° |
| 2026-05-06 23:21 | 36.49256 | -78.23863 | 5487 ft | 285 kts | 190° |
| 2026-05-06 23:22 | 36.47281 | -78.24065 | 5481 ft | 284 kts | 190° |
| 2026-05-06 23:22 | 36.45313 | -78.24263 | 5483 ft | 285 kts | 190° |
| 2026-05-06 23:22 | 36.43330 | -78.24465 | 5493 ft | 285 kts | 190° |
| 2026-05-06 23:22 | 36.41384 | -78.24664 | 5490 ft | 285 kts | 190° |
| 2026-05-06 23:23 | 36.39417 | -78.24862 | 5483 ft | 285 kts | 190° |
| 2026-05-06 23:23 | 36.37444 | -78.25064 | 5489 ft | 283 kts | 190° |
| 2026-05-06 23:23 | 36.35487 | -78.25261 | 5488 ft | 282 kts | 190° |
| 2026-05-06 23:23 | 36.33511 | -78.25464 | 5485 ft | 285 kts | 190° |
| 2026-05-06 23:24 | 36.31533 | -78.25670 | 5488 ft | 285 kts | 190° |
| 2026-05-06 23:24 | 36.29559 | -78.25868 | 5490 ft | 285 kts | 190° |
| 2026-05-06 23:24 | 36.27585 | -78.26059 | 5483 ft | 284 kts | 190° |
| 2026-05-06 23:24 | 36.25604 | -78.26264 | 5497 ft | 286 kts | 190° |
| 2026-05-06 23:25 | 36.23626 | -78.26471 | 4908 ft | 284 kts | 190° |
| 2026-05-06 23:25 | 36.21698 | -78.26685 | 4273 ft | 273 kts | 190° |
| 2026-05-06 23:25 | 36.19792 | -78.26895 | 4437 ft | 277 kts | 189° |
| 2026-05-06 23:25 | 36.17886 | -78.27120 | 4521 ft | 277 kts | 190° |
| 2026-05-06 23:26 | 36.15962 | -78.27338 | 4507 ft | 280 kts | 190° |
| 2026-05-06 23:26 | 36.14016 | -78.27571 | 4514 ft | 284 kts | 189° |
| 2026-05-06 23:26 | 36.12053 | -78.27814 | 4507 ft | 282 kts | 190° |
| 2026-05-06 23:26 | 36.10118 | -78.28048 | 4516 ft | 282 kts | 190° |
| 2026-05-06 23:27 | 36.08168 | -78.28288 | 4385 ft | 285 kts | 190° |
| 2026-05-06 23:27 | 36.06225 | -78.28524 | 4073 ft | 280 kts | 189° |
| 2026-05-06 23:27 | 36.04293 | -78.28773 | 3735 ft | 277 kts | 190° |
| 2026-05-06 23:27 | 36.02404 | -78.29009 | 3552 ft | 276 kts | 190° |
| 2026-05-06 23:28 | 36.00495 | -78.29246 | 3507 ft | 278 kts | 190° |
| 2026-05-06 23:28 | 35.98570 | -78.29486 | 3511 ft | 276 kts | 190° |
| 2026-05-06 23:28 | 35.96655 | -78.29729 | 3509 ft | 276 kts | 190° |
| 2026-05-06 23:28 | 35.94756 | -78.29968 | 3519 ft | 275 kts | 190° |
| 2026-05-06 23:29 | 35.92844 | -78.30209 | 3507 ft | 273 kts | 191° |
| 2026-05-06 23:29 | 35.91090 | -78.31007 | 3518 ft | 269 kts | 216° |
| 2026-05-06 23:29 | 35.89596 | -78.32388 | 3510 ft | 268 kts | 220° |
| 2026-05-06 23:29 | 35.88138 | -78.33786 | 3508 ft | 269 kts | 220° |
| 2026-05-06 23:30 | 35.86685 | -78.35178 | 3497 ft | 250 kts | 220° |
| 2026-05-06 23:30 | 35.85391 | -78.36401 | 3483 ft | 228 kts | 220° |
| 2026-05-06 23:30 | 35.84151 | -78.37560 | 3477 ft | 212 kts | 220° |
| 2026-05-06 23:30 | 35.83004 | -78.38630 | 3490 ft | 204 kts | 220° |
| 2026-05-06 23:31 | 35.81867 | -78.39688 | 3483 ft | 205 kts | 220° |
| 2026-05-06 23:31 | 35.80727 | -78.40746 | 3483 ft | 204 kts | 220° |
| 2026-05-06 23:31 | 35.79592 | -78.41805 | 3490 ft | 205 kts | 220° |
| 2026-05-06 23:31 | 35.78466 | -78.42865 | 3486 ft | 204 kts | 220° |
| 2026-05-06 23:32 | 35.77556 | -78.44169 | 3488 ft | 200 kts | 248° |
| 2026-05-06 23:32 | 35.77242 | -78.45836 | 3488 ft | 205 kts | 260° |
| 2026-05-06 23:32 | 35.77052 | -78.47556 | 3494 ft | 203 kts | 261° |
| 2026-05-06 23:32 | 35.76873 | -78.49281 | 3486 ft | 203 kts | 261° |
| 2026-05-06 23:33 | 35.76696 | -78.50992 | 3482 ft | 202 kts | 261° |
| 2026-05-06 23:33 | 35.76524 | -78.52595 | 3487 ft | 202 kts | 261° |
| 2026-05-06 23:33 | 35.76341 | -78.54311 | 3492 ft | 202 kts | 261° |
| 2026-05-06 23:33 | 35.76163 | -78.55986 | 3489 ft | 203 kts | 261° |
| 2026-05-06 23:34 | 35.76008 | -78.57693 | 3377 ft | 202 kts | 264° |
| 2026-05-06 23:34 | 35.75988 | -78.59353 | 3035 ft | 188 kts | 270° |
| 2026-05-06 23:34 | 35.76111 | -78.60923 | 2638 ft | 184 kts | 277° |
| 2026-05-06 23:34 | 35.76355 | -78.62466 | 2183 ft | 184 kts | 279° |
| 2026-05-06 23:35 | 35.76757 | -78.63974 | 2049 ft | 187 kts | 289° |
| 2026-05-06 23:35 | 35.77333 | -78.65423 | 2145 ft | 185 kts | 292° |
| 2026-05-06 23:35 | 35.78073 | -78.66682 | 2287 ft | 184 kts | 310° |
| 2026-05-06 23:35 | 35.79028 | -78.67740 | 2345 ft | 182 kts | 315° |
| 2026-05-06 23:36 | 35.79902 | -78.68654 | 2268 ft | 150 kts | 309° |
| 2026-05-06 23:36 | 35.80606 | -78.69469 | 2205 ft | 131 kts | 307° |
| 2026-05-06 23:36 | 35.81235 | -78.70353 | 2066 ft | 142 kts | 302° |
| 2026-05-06 23:36 | 35.81896 | -78.71251 | 1937 ft | 143 kts | 307° |
| 2026-05-06 23:37 | 35.82562 | -78.72103 | 1771 ft | 136 kts | 306° |
| 2026-05-06 23:37 | 35.83218 | -78.72967 | 1635 ft | 139 kts | 307° |
| 2026-05-06 23:37 | 35.83918 | -78.73834 | 1395 ft | 147 kts | 310° |
| 2026-05-06 23:37 | 35.84607 | -78.74695 | 1215 ft | 133 kts | 308° |
| 2026-05-06 23:38 | 35.85282 | -78.75545 | 981 ft | 141 kts | 308° |
| 2026-05-06 23:38 | 35.85987 | -78.76410 | 732 ft | 142 kts | 310° |
| 2026-05-06 23:38 | 35.86671 | -78.77240 | 527 ft | 134 kts | 310° |
| 2026-05-06 23:38 | 35.87180 | -78.77886 | 423 ft | 48 kts | 312° |
| 2026-05-06 23:39 | 35.87274 | -78.77983 | 423 ft | 10 kts | 320° |
| 2026-05-06 23:39 | 35.87310 | -78.78024 | 431 ft | 3 kts | 302° |
| 2026-05-06 23:39 | 35.87301 | -78.78040 | 432 ft | 1 kts | 151° |
| 2026-05-06 23:39 | 35.87277 | -78.78004 | 418 ft | 22 kts | 130° |
| 2026-05-06 23:40 | 35.87177 | -78.77872 | 422 ft | 30 kts | 135° |
| 2026-05-06 23:40 | 35.87092 | -78.77769 | 421 ft | 14 kts | 134° |
| 2026-05-06 23:40 | 35.87025 | -78.77681 | 425 ft | 12 kts | 135° |
| 2026-05-06 23:40 | 35.86963 | -78.77608 | 426 ft | 13 kts | 135° |
| 2026-05-06 23:41 | 35.86904 | -78.77534 | 426 ft | 11 kts | 134° |
| 2026-05-06 23:41 | 35.86864 | -78.77509 | 425 ft | 9 kts | 188° |
| 2026-05-06 23:41 | 35.86802 | -78.77569 | 426 ft | 9 kts | 224° |
| 2026-05-06 23:41 | 35.86776 | -78.77611 | 425 ft | 12 kts | 256° |
| 2026-05-06 23:42 | 35.86777 | -78.77629 | 428 ft | 0 kts | 299° |
| 2026-05-06 23:42 | 35.86778 | -78.77630 | 428 ft | 1 kts | 307° |
| 2026-05-06 23:42 | 35.86776 | -78.77628 | 428 ft | 4 kts | 302° |